Time;durP1;ratioP1;P1;durP2;ratioP2;P2;SDS_P1;SDS_P2;PMS_P1;PMS_P2;Temp;Humidity;BMP_temperature;BMP_pressure;BME280_temperature;BME280_humidity;BME280_pressure;Samples;Min_cycle;Max_cycle;Signal;HPM_P1;HPM_P2
2022/06/12 00:01:03;;;;;;;9.63;3.13;;;19.30;53.10;;;;;;5030582;28;20209;-95
2022/06/12 00:03:32;;;;;;;17.57;4.47;;;19.20;53.20;;;;;;5029440;28;20197;-94
2022/06/12 00:06:04;;;;;;;11.43;3.70;;;19.20;53.50;;;;;;5034114;28;20215;-95
2022/06/12 00:08:33;;;;;;;16.37;5.23;;;19.20;53.70;;;;;;5043032;28;20487;-94
2022/06/12 00:11:03;;;;;;;22.87;6.60;;;19.20;53.60;;;;;;5053072;28;20204;-94
2022/06/12 00:13:33;;;;;;;13.63;3.57;;;19.20;53.80;;;;;;5041098;28;20703;-94
2022/06/12 00:16:05;;;;;;;10.20;3.47;;;19.10;54.00;;;;;;5035943;28;20208;-93
2022/06/12 00:18:38;;;;;;;17.17;4.33;;;19.10;54.40;;;;;;5035452;28;20203;-94
2022/06/12 00:21:12;;;;;;;11.60;3.67;;;19.10;54.60;;;;;;5032235;28;20213;-92
2022/06/12 00:23:42;;;;;;;10.80;3.77;;;19.00;54.50;;;;;;5033376;28;20211;-94
2022/06/12 00:26:11;;;;;;;15.33;4.07;;;19.00;54.40;;;;;;5028602;28;20232;-94
2022/06/12 00:28:42;;;;;;;18.13;4.27;;;19.00;54.50;;;;;;5034806;28;20295;-95
2022/06/12 00:31:10;;;;;;;16.30;4.10;;;19.00;54.80;;;;;;5021852;28;20212;-94
2022/06/12 00:33:38;;;;;;;21.17;3.47;;;18.90;54.70;;;;;;5034781;28;20223;-94
2022/06/12 00:36:08;;;;;;;13.57;4.43;;;18.90;54.70;;;;;;5042578;28;20223;-94
2022/06/12 00:38:40;;;;;;;22.77;6.47;;;18.90;54.70;;;;;;5046137;28;20291;-95
2022/06/12 00:41:08;;;;;;;16.53;5.00;;;18.80;54.80;;;;;;5033932;28;20274;-95
2022/06/12 00:43:37;;;;;;;13.27;4.50;;;18.80;55.10;;;;;;5045250;28;20212;-94
2022/06/12 00:46:06;;;;;;;20.50;6.27;;;18.80;54.90;;;;;;5031518;28;20215;-94
2022/06/12 00:48:37;;;;;;;13.47;4.07;;;18.80;55.30;;;;;;5031405;28;20232;-94
2022/06/12 00:51:11;;;;;;;10.70;3.53;;;18.80;55.40;;;;;;5033835;28;20195;-94
2022/06/12 00:53:47;;;;;;;13.83;3.93;;;18.70;55.50;;;;;;5033504;28;20322;-93
2022/06/12 00:56:20;;;;;;;14.57;3.87;;;18.70;55.80;;;;;;5032974;28;20555;-93
2022/06/12 00:58:51;;;;;;;11.03;3.07;;;18.70;55.90;;;;;;5033670;28;20207;-94
2022/06/12 01:01:23;;;;;;;18.27;4.53;;;18.60;55.80;;;;;;5033116;28;20211;-93
2022/06/12 01:06:39;;;;;;;18.93;4.70;;;18.60;55.90;;;;;;5022354;28;20208;-94
2022/06/12 01:09:14;;;;;;;15.10;4.50;;;18.60;56.00;;;;;;5024654;28;20215;-94
2022/06/12 01:11:47;;;;;;;14.63;4.63;;;18.60;56.40;;;;;;5030295;28;20699;-94
2022/06/12 01:14:18;;;;;;;18.33;4.77;;;18.60;56.50;;;;;;5032090;28;20622;-94
2022/06/12 01:16:48;;;;;;;17.97;4.47;;;18.60;56.40;;;;;;5031867;28;20915;-94
2022/06/12 01:19:22;;;;;;;19.23;5.83;;;18.50;56.40;;;;;;5027246;28;20514;-94
2022/06/12 01:22:22;;;;;;;16.97;4.73;;;18.50;56.60;;;;;;5017844;28;20282;-95
2022/06/12 01:25:18;;;;;;;20.53;5.47;;;18.50;57.30;;;;;;5028978;28;20231;-94
2022/06/12 01:28:29;;;;;;;13.07;3.53;;;18.40;57.10;;;;;;5010922;28;20205;-94
2022/06/12 01:31:02;;;;;;;16.23;4.73;;;18.40;57.30;;;;;;5020157;28;20651;-94
2022/06/12 01:33:35;;;;;;;17.93;5.33;;;18.40;56.70;;;;;;5023141;28;20227;-95
2022/06/12 01:36:09;;;;;;;15.73;4.23;;;18.30;56.90;;;;;;5032616;28;20211;-94
2022/06/12 01:38:44;;;;;;;15.50;4.43;;;18.30;56.90;;;;;;5041231;28;20202;-94
2022/06/12 01:41:18;;;;;;;15.07;4.63;;;18.30;57.10;;;;;;5036432;28;20518;-94
2022/06/12 01:43:51;;;;;;;14.53;3.37;;;18.30;57.30;;;;;;5025330;28;20208;-94
2022/06/12 01:46:22;;;;;;;16.17;4.60;;;18.20;57.60;;;;;;5022796;28;20223;-94
2022/06/12 01:49:07;;;;;;;10.17;3.60;;;18.20;57.40;;;;;;5017305;28;20606;-95
2022/06/12 01:51:40;;;;;;;16.17;3.60;;;18.20;57.90;;;;;;5032976;28;20207;-94
2022/06/12 01:54:16;;;;;;;9.43;3.63;;;18.20;57.70;;;;;;5032566;28;20318;-94
2022/06/12 01:56:51;;;;;;;12.73;3.77;;;18.20;57.90;;;;;;5013219;28;20275;-94
2022/06/12 01:59:26;;;;;;;10.40;4.10;;;18.10;58.00;;;;;;5019990;28;20198;-94
2022/06/12 02:02:00;;;;;;;17.30;4.27;;;18.10;58.10;;;;;;5032635;28;20207;-93
2022/06/12 02:04:34;;;;;;;11.60;3.23;;;18.10;58.10;;;;;;5032840;28;20236;-94
2022/06/12 02:07:09;;;;;;;13.07;4.03;;;18.00;58.00;;;;;;5032752;28;20216;-94
2022/06/12 02:09:50;;;;;;;17.00;5.90;;;18.00;58.10;;;;;;5031906;28;20204;-94
2022/06/12 02:15:14;;;;;;;12.73;3.87;;;18.00;58.30;;;;;;5032221;28;20231;-94
2022/06/12 02:17:48;;;;;;;13.73;3.70;;;18.00;58.50;;;;;;5025780;28;20203;-94
2022/06/12 02:20:20;;;;;;;15.47;4.07;;;18.00;58.60;;;;;;5032213;28;20249;-95
2022/06/12 02:22:54;;;;;;;10.47;3.63;;;18.00;58.70;;;;;;5031150;28;20215;-95
2022/06/12 02:25:25;;;;;;;10.53;3.77;;;18.00;59.00;;;;;;5023345;28;20573;-94
2022/06/12 02:28:01;;;;;;;11.00;3.77;;;17.90;58.90;;;;;;5026673;28;20212;-95
2022/06/12 02:30:37;;;;;;;12.87;4.13;;;17.90;59.10;;;;;;5022636;28;20204;-93
2022/06/12 02:33:07;;;;;;;18.60;5.93;;;17.90;59.20;;;;;;5030388;28;20296;-94
2022/06/12 02:35:40;;;;;;;17.97;5.43;;;17.90;59.40;;;;;;5026458;28;20231;-94
2022/06/12 02:38:13;;;;;;;17.50;5.13;;;17.90;59.70;;;;;;5026554;28;20426;-94
2022/06/12 02:40:44;;;;;;;18.87;5.67;;;17.80;59.70;;;;;;5028300;28;20234;-94
2022/06/12 02:43:15;;;;;;;14.90;5.23;;;17.80;59.60;;;;;;5029026;28;20279;-94
2022/06/12 02:45:50;;;;;;;12.47;4.53;;;17.80;59.90;;;;;;5016509;28;20297;-94
2022/06/12 02:48:23;;;;;;;12.43;4.53;;;17.80;60.00;;;;;;5029661;28;20241;-94
2022/06/12 02:50:58;;;;;;;18.47;5.07;;;17.80;60.00;;;;;;5029051;28;20286;-93
2022/06/12 02:53:40;;;;;;;12.27;4.60;;;17.80;60.10;;;;;;5029981;28;20291;-94
2022/06/12 02:56:14;;;;;;;17.33;5.77;;;17.70;60.50;;;;;;5027524;28;20728;-94
2022/06/12 02:58:54;;;;;;;18.97;5.10;;;17.80;60.10;;;;;;5029996;28;20208;-94
2022/06/12 03:01:31;;;;;;;22.70;6.43;;;17.70;60.20;;;;;;5030072;28;20630;-93
2022/06/12 03:04:08;;;;;;;19.17;5.73;;;17.70;60.10;;;;;;5023669;28;20713;-94
2022/06/12 03:06:40;;;;;;;18.50;6.13;;;17.70;60.30;;;;;;5013822;28;20269;-94
2022/06/12 03:09:08;;;;;;;18.90;6.60;;;17.70;60.70;;;;;;5025586;28;20219;-94
2022/06/12 03:11:37;;;;;;;20.33;5.90;;;17.70;60.00;;;;;;5018674;28;20674;-94
2022/06/12 03:14:09;;;;;;;12.03;5.27;;;17.70;60.00;;;;;;5031127;28;20351;-93
2022/06/12 03:16:41;;;;;;;13.30;5.20;;;17.70;60.30;;;;;;5025248;28;20203;-94
2022/06/12 03:19:14;;;;;;;15.20;5.60;;;17.60;60.30;;;;;;5024731;28;20204;-93
2022/06/12 03:21:49;;;;;;;14.33;4.47;;;17.60;60.20;;;;;;5030865;28;20255;-94
2022/06/12 03:24:36;;;;;;;15.23;5.27;;;17.60;60.30;;;;;;5031037;28;20619;-94
2022/06/12 03:27:25;;;;;;;13.13;5.10;;;17.60;61.10;;;;;;5029687;28;20751;-94
2022/06/12 03:30:15;;;;;;;16.20;5.63;;;17.60;61.10;;;;;;5027050;28;20206;-94
2022/06/12 03:33:07;;;;;;;24.13;7.27;;;17.50;60.60;;;;;;5028260;28;20213;-93
2022/06/12 03:35:46;;;;;;;25.80;7.67;;;17.50;60.80;;;;;;5028118;28;20249;-94
2022/06/12 03:38:20;;;;;;;22.03;6.10;;;17.50;60.90;;;;;;5028855;28;20315;-94
2022/06/12 03:40:54;;;;;;;14.43;5.50;;;17.50;60.80;;;;;;5032611;28;20202;-93
2022/06/12 03:43:31;;;;;;;21.07;6.50;;;17.40;60.70;;;;;;5050187;28;20170;-93
2022/06/12 03:46:06;;;;;;;13.17;5.37;;;17.40;61.00;;;;;;5053398;28;20217;-92
2022/06/12 03:48:46;;;;;;;12.40;4.07;;;17.40;61.20;;;;;;5037277;28;20224;-93
2022/06/12 03:51:18;;;;;;;10.50;4.37;;;17.40;61.60;;;;;;5036422;28;20249;-94
2022/06/12 03:53:53;;;;;;;13.70;5.13;;;17.30;61.60;;;;;;5035878;28;20229;-94
2022/06/12 03:59:21;;;;;;;19.80;5.67;;;17.30;61.40;;;;;;5015130;28;20198;-94
2022/06/12 04:01:49;;;;;;;19.27;5.40;;;17.30;61.50;;;;;;5025658;28;20302;-93
2022/06/12 04:04:20;;;;;;;20.87;7.40;;;17.30;61.50;;;;;;5033148;28;20319;-94
2022/06/12 04:06:52;;;;;;;14.47;5.03;;;17.20;61.90;;;;;;5032504;28;20649;-94
2022/06/12 04:09:24;;;;;;;19.60;7.27;;;17.20;61.90;;;;;;5044843;28;20197;-95
2022/06/12 04:11:55;;;;;;;18.73;6.80;;;17.20;62.30;;;;;;5048601;28;20206;-94
2022/06/12 04:14:27;;;;;;;21.00;6.80;;;17.20;62.60;;;;;;5035396;28;20285;-94
2022/06/12 04:17:01;;;;;;;10.90;4.90;;;17.20;62.80;;;;;;5037014;28;20226;-94
2022/06/12 04:19:58;;;;;;;18.70;6.20;;;17.20;63.30;;;;;;5039013;28;20223;-93
2022/06/12 04:22:21;;;;;;;15.33;6.00;;;17.20;62.80;;;;;;5041380;28;20207;-94
2022/06/12 04:24:54;;;;;;;18.27;5.90;;;17.20;62.70;;;;;;5039167;28;20205;-94
2022/06/12 04:27:25;;;;;;;14.90;5.67;;;17.10;63.10;;;;;;5036011;28;20235;-93
2022/06/12 04:29:57;;;;;;;21.17;5.90;;;17.10;63.10;;;;;;5038971;28;20251;-93
2022/06/12 04:32:38;;;;;;;21.47;7.07;;;17.10;63.50;;;;;;5041754;28;20550;-94
2022/06/12 04:35:13;;;;;;;15.77;6.40;;;17.10;63.30;;;;;;5037782;28;20757;-95
2022/06/12 04:37:46;;;;;;;20.80;6.10;;;17.10;63.70;;;;;;5034671;28;20618;-95
2022/06/12 04:40:24;;;;;;;17.73;7.17;;;17.10;64.30;;;;;;5034615;28;20244;-94
2022/06/12 04:42:53;;;;;;;16.97;6.73;;;17.10;64.40;;;;;;5021767;28;20225;-94
2022/06/12 04:45:21;;;;;;;26.77;8.20;;;17.10;63.90;;;;;;5025943;28;20208;-94
2022/06/12 04:47:48;;;;;;;18.80;7.80;;;17.10;64.10;;;;;;5036578;28;20215;-94
2022/06/12 04:50:17;;;;;;;14.30;6.70;;;17.10;64.40;;;;;;5035386;28;20210;-95
2022/06/12 04:52:47;;;;;;;19.73;5.80;;;17.10;64.90;;;;;;5034837;28;20301;-94
2022/06/12 04:55:17;;;;;;;19.77;6.93;;;17.10;64.90;;;;;;5033709;28;20267;-92
2022/06/12 04:57:45;;;;;;;13.83;5.47;;;17.10;65.40;;;;;;5035007;28;20276;-94
2022/06/12 05:00:14;;;;;;;15.73;6.00;;;17.10;65.20;;;;;;5034266;28;20248;-94
2022/06/12 05:02:44;;;;;;;24.83;8.83;;;17.10;65.40;;;;;;5033177;28;20261;-94
2022/06/12 05:05:12;;;;;;;14.80;6.13;;;17.10;65.40;;;;;;5028199;28;20204;-93
2022/06/12 05:07:41;;;;;;;20.23;6.50;;;17.10;65.30;;;;;;5019003;28;20252;-93
2022/06/12 05:10:13;;;;;;;15.87;7.50;;;17.20;65.70;;;;;;5016663;28;20202;-92
2022/06/12 05:12:43;;;;;;;14.80;6.30;;;17.20;65.90;;;;;;5027193;28;20222;-93
2022/06/12 05:15:12;;;;;;;25.73;7.87;;;17.20;66.10;;;;;;5033307;28;20224;-94
2022/06/12 05:17:40;;;;;;;18.37;7.33;;;17.20;66.30;;;;;;5033014;28;20206;-93
2022/06/12 05:20:14;;;;;;;10.47;5.27;;;17.20;66.50;;;;;;5033368;28;20205;-93
2022/06/12 05:22:50;;;;;;;14.30;6.53;;;17.30;66.50;;;;;;5033044;28;20210;-94
2022/06/12 05:25:24;;;;;;;17.23;6.93;;;17.30;67.30;;;;;;5032599;28;20214;-93
2022/06/12 05:27:54;;;;;;;12.70;6.20;;;17.40;67.40;;;;;;5033302;28;20290;-94
2022/06/12 05:30:26;;;;;;;15.30;6.83;;;17.40;66.80;;;;;;5033091;28;20643;-94
2022/06/12 05:32:57;;;;;;;16.83;6.90;;;17.40;67.10;;;;;;5032864;28;20202;-93
2022/06/12 05:35:28;;;;;;;17.53;6.57;;;17.40;67.50;;;;;;5023206;28;20340;-93
2022/06/12 05:37:58;;;;;;;12.63;5.83;;;17.50;67.80;;;;;;5013238;28;20226;-93
2022/06/12 05:40:30;;;;;;;21.07;7.53;;;17.50;67.60;;;;;;5031625;28;20205;-94
2022/06/12 05:43:01;;;;;;;17.23;6.47;;;17.50;67.70;;;;;;5033018;28;20647;-94
2022/06/12 05:45:31;;;;;;;15.37;5.77;;;17.60;67.70;;;;;;5032839;28;20273;-93
2022/06/12 05:48:01;;;;;;;17.97;5.83;;;17.60;67.90;;;;;;5035168;28;20258;-94
2022/06/12 05:50:32;;;;;;;14.20;5.87;;;17.70;68.10;;;;;;5031838;28;20212;-94
2022/06/12 05:53:02;;;;;;;18.47;6.50;;;17.70;68.10;;;;;;5032842;28;20253;-94
2022/06/12 05:55:29;;;;;;;19.17;6.67;;;17.80;68.50;;;;;;5028007;28;20750;-93
2022/06/12 05:57:57;;;;;;;9.97;6.03;;;17.80;68.20;;;;;;5031136;28;20212;-94
2022/06/12 06:00:28;;;;;;;16.70;6.17;;;17.90;68.50;;;;;;5026140;28;20212;-93
2022/06/12 06:02:55;;;;;;;14.43;5.17;;;17.90;69.10;;;;;;5017238;28;20274;-94
2022/06/12 06:05:25;;;;;;;14.07;5.87;;;18.00;68.60;;;;;;5032821;28;20622;-94
2022/06/12 06:07:53;;;;;;;16.73;6.07;;;18.00;69.10;;;;;;5031112;28;20203;-94
2022/06/12 06:10:25;;;;;;;17.40;6.73;;;18.10;69.10;;;;;;5027493;28;20204;-95
2022/06/12 06:12:56;;;;;;;14.70;7.00;;;18.20;69.50;;;;;;5029734;28;20227;-94
2022/06/12 06:15:24;;;;;;;13.67;6.20;;;18.20;69.50;;;;;;5030119;28;20267;-95
2022/06/12 06:17:52;;;;;;;22.20;6.30;;;18.30;69.30;;;;;;5030210;28;20215;-95
2022/06/12 06:20:25;;;;;;;19.80;6.13;;;18.40;69.30;;;;;;5029128;28;20730;-94
2022/06/12 06:22:54;;;;;;;15.43;5.87;;;18.50;69.90;;;;;;5011758;28;20212;-94
2022/06/12 06:25:41;;;;;;;18.20;6.27;;;18.50;69.50;;;;;;5016173;28;20212;-90
2022/06/12 06:28:11;;;;;;;10.57;4.60;;;18.60;69.90;;;;;;5021654;28;20214;-94
2022/06/12 06:30:38;;;;;;;11.97;4.60;;;18.70;70.30;;;;;;5031669;28;20255;-94
2022/06/12 06:33:06;;;;;;;15.13;5.53;;;18.80;69.00;;;;;;5016224;28;20279;-94
2022/06/12 06:35:34;;;;;;;12.23;4.43;;;18.80;68.70;;;;;;5031168;28;20231;-94
2022/06/12 06:38:03;;;;;;;8.77;4.20;;;19.00;68.70;;;;;;5032234;28;20201;-94
2022/06/12 06:40:33;;;;;;;10.57;3.83;;;19.00;68.80;;;;;;5031350;28;20205;-93
2022/06/12 06:43:03;;;;;;;14.57;4.60;;;19.10;68.40;;;;;;5031445;28;20274;-94
2022/06/12 06:48:18;;;;;;;14.10;4.50;;;19.20;67.70;;;;;;5015739;28;20290;-93
2022/06/12 06:50:48;;;;;;;13.90;5.23;;;19.30;67.80;;;;;;5030114;28;20251;-95
2022/06/12 06:53:16;;;;;;;13.40;4.53;;;19.40;67.60;;;;;;5030024;28;20201;-92
2022/06/12 06:55:46;;;;;;;14.73;5.27;;;19.50;67.10;;;;;;5026085;28;20229;-93
2022/06/12 06:58:19;;;;;;;14.77;4.77;;;19.50;66.80;;;;;;5030288;28;20211;-93
2022/06/12 07:00:50;;;;;;;12.00;4.07;;;19.60;66.40;;;;;;5028461;28;20300;-93
2022/06/12 07:03:20;;;;;;;17.20;4.87;;;19.60;66.00;;;;;;5025705;28;20235;-94
2022/06/12 07:05:51;;;;;;;15.17;5.00;;;19.70;65.80;;;;;;5010551;28;20236;-92
2022/06/12 07:08:20;;;;;;;13.90;4.10;;;19.80;65.60;;;;;;5028066;28;20216;-92
2022/06/12 07:10:51;;;;;;;7.77;3.00;;;19.90;65.60;;;;;;5029102;28;20205;-95
2022/06/12 07:13:20;;;;;;;12.23;4.60;;;20.00;65.20;;;;;;5030187;28;20292;-93
2022/06/12 07:15:48;;;;;;;9.77;3.93;;;20.00;64.90;;;;;;5026486;28;20254;-94
2022/06/12 07:18:16;;;;;;;15.80;4.90;;;20.00;64.90;;;;;;5037117;28;20193;-94
2022/06/12 07:20:48;;;;;;;14.17;5.00;;;20.20;64.70;;;;;;5046620;28;20189;-94
2022/06/12 07:23:37;;;;;;;9.47;3.57;;;20.20;64.30;;;;;;5025590;28;20224;-94
2022/06/12 07:26:09;;;;;;;10.80;3.77;;;20.30;64.30;;;;;;5015355;28;20205;-93
2022/06/12 07:28:40;;;;;;;9.13;3.97;;;20.30;64.30;;;;;;5012304;28;20205;-93
2022/06/12 07:31:11;;;;;;;10.77;4.10;;;20.40;63.90;;;;;;5012678;28;20654;-94
2022/06/12 07:33:38;;;;;;;9.37;2.77;;;20.40;63.90;;;;;;5012707;28;20213;-94
2022/06/12 07:36:10;;;;;;;14.93;5.10;;;20.50;63.70;;;;;;5027825;28;20232;-94
2022/06/12 07:38:40;;;;;;;9.43;3.20;;;20.50;63.30;;;;;;5030269;28;20189;-93
2022/06/12 07:41:11;;;;;;;9.33;3.33;;;20.60;63.30;;;;;;5030513;28;20724;-93
2022/06/12 07:43:40;;;;;;;12.33;3.90;;;20.60;63.00;;;;;;5048108;28;20205;-94
2022/06/12 07:46:13;;;;;;;8.90;3.70;;;20.70;63.30;;;;;;5047519;28;20196;-93
2022/06/12 07:48:41;;;;;;;11.10;4.27;;;20.70;63.10;;;;;;5028975;28;20209;-94
2022/06/12 07:51:14;;;;;;;9.50;2.87;;;20.80;62.20;;;;;;5034105;28;20696;-94
2022/06/12 07:53:44;;;;;;;7.73;3.20;;;20.80;61.70;;;;;;5032297;28;20201;-95
2022/06/12 07:56:14;;;;;;;9.50;3.53;;;20.90;62.30;;;;;;5031854;28;20654;-93
2022/06/12 07:58:46;;;;;;;13.40;4.07;;;20.90;62.10;;;;;;5031418;28;20616;-95
2022/06/12 08:01:23;;;;;;;12.40;4.13;;;21.00;62.20;;;;;;5030161;28;20219;-93
2022/06/12 08:03:50;;;;;;;10.47;3.87;;;21.10;62.00;;;;;;5030217;28;20342;-93
2022/06/12 08:06:19;;;;;;;10.97;3.60;;;21.20;62.10;;;;;;5030155;28;20205;-92
2022/06/12 08:08:50;;;;;;;9.33;3.33;;;21.20;62.20;;;;;;5030554;28;20254;-95
2022/06/12 08:11:21;;;;;;;11.27;3.50;;;21.30;62.10;;;;;;5030541;28;20200;-94
2022/06/12 08:13:50;;;;;;;8.57;3.37;;;21.30;61.50;;;;;;5029780;28;20560;-92
2022/06/12 08:16:18;;;;;;;10.63;3.90;;;21.40;60.70;;;;;;5029927;28;20236;-94
2022/06/12 08:18:45;;;;;;;6.93;2.53;;;21.40;60.00;;;;;;5030307;28;21469;-93
2022/06/12 08:21:19;;;;;;;4.73;2.20;;;21.40;59.60;;;;;;5029565;28;20621;-94
2022/06/12 08:23:50;;;;;;;8.40;2.57;;;21.50;60.00;;;;;;5030444;28;20631;-94
2022/06/12 08:26:23;;;;;;;9.07;3.60;;;21.50;59.10;;;;;;5033136;28;20625;-94
2022/06/12 08:28:53;;;;;;;9.30;3.03;;;21.60;59.10;;;;;;5033988;28;20209;-93
2022/06/12 08:31:23;;;;;;;8.60;3.70;;;21.60;59.30;;;;;;5033912;28;20216;-94
2022/06/12 08:34:01;;;;;;;9.73;3.60;;;21.70;59.60;;;;;;5033575;28;20209;-95
2022/06/12 08:36:28;;;;;;;10.53;3.63;;;21.70;59.60;;;;;;5025130;28;20670;-94
2022/06/12 08:38:56;;;;;;;8.90;3.43;;;21.90;60.00;;;;;;5033569;28;20205;-94
2022/06/12 08:41:33;;;;;;;10.33;4.10;;;22.00;59.70;;;;;;5031089;28;20216;-95
2022/06/12 08:44:09;;;;;;;10.93;3.50;;;22.20;59.20;;;;;;5026956;28;20220;-93
2022/06/12 08:46:42;;;;;;;9.30;3.90;;;22.30;58.80;;;;;;5033469;28;20325;-93
2022/06/12 08:49:15;;;;;;;12.80;3.97;;;22.50;58.90;;;;;;5025073;28;20290;-93
2022/06/12 08:51:48;;;;;;;10.77;4.17;;;22.70;58.80;;;;;;5029972;28;20639;-93
2022/06/12 08:54:22;;;;;;;8.23;3.30;;;22.90;57.70;;;;;;5032727;28;20679;-94
2022/06/12 08:56:59;;;;;;;10.80;4.17;;;23.10;57.50;;;;;;5030211;28;20239;-92
2022/06/12 08:59:48;;;;;;;10.87;4.27;;;23.20;57.00;;;;;;5032155;28;20211;-93
2022/06/12 09:02:21;;;;;;;7.20;3.07;;;23.50;57.60;;;;;;5056056;22;20239;-93
2022/06/12 09:04:49;;;;;;;8.80;3.53;;;23.60;56.90;;;;;;5049870;28;20580;-93
2022/06/12 09:07:23;;;;;;;8.10;3.20;;;23.80;56.50;;;;;;5051807;28;20208;-94
2022/06/12 09:09:53;;;;;;;10.53;3.57;;;24.10;57.20;;;;;;5052351;28;20204;-93
2022/06/12 09:12:29;;;;;;;7.17;2.83;;;24.20;56.10;;;;;;5059089;22;21034;-94
2022/06/12 09:15:26;;;;;;;7.97;2.80;;;24.40;55.10;;;;;;5052371;28;20258;-94
2022/06/12 09:18:02;;;;;;;9.17;3.43;;;24.60;54.40;;;;;;5053578;28;20211;-93
2022/06/12 09:20:40;;;;;;;9.53;3.53;;;24.80;55.20;;;;;;5055883;28;20200;-91
2022/06/12 09:23:17;;;;;;;10.77;4.97;;;24.90;54.60;;;;;;5060313;22;20200;-93
2022/06/12 09:25:53;;;;;;;7.97;2.93;;;25.10;53.60;;;;;;5024207;28;20213;-93
2022/06/12 09:28:32;;;;;;;6.57;2.97;;;25.20;53.10;;;;;;5015417;28;20264;-94
2022/06/12 09:43:10;;;;;;;7.10;3.23;;;25.70;52.60;;;;;;5070704;28;20210;-92
2022/06/12 09:45:48;;;;;;;6.30;2.87;;;25.80;51.50;;;;;;5078104;28;20530;-93
2022/06/12 09:48:22;;;;;;;9.20;3.53;;;25.90;51.60;;;;;;5080385;28;20283;-95
2022/06/12 09:50:59;;;;;;;6.10;3.00;;;25.90;51.50;;;;;;5080376;28;20228;-93
2022/06/12 09:53:42;;;;;;;10.87;3.70;;;25.90;51.50;;;;;;5059564;28;20184;-95
2022/06/12 09:56:16;;;;;;;6.23;2.80;;;26.00;51.30;;;;;;5061677;28;20673;-94
2022/06/12 09:58:49;;;;;;;5.97;2.90;;;26.10;51.80;;;;;;5051911;28;20215;-94
2022/06/12 10:04:25;;;;;;;11.07;4.00;;;26.20;51.30;;;;;;5056276;22;20240;-92
2022/06/12 10:07:00;;;;;;;10.20;4.27;;;26.30;51.50;;;;;;5048452;28;20216;-92
2022/06/12 10:09:36;;;;;;;7.13;3.37;;;26.30;51.30;;;;;;5036868;28;20656;-91
2022/06/12 10:12:10;;;;;;;9.30;3.73;;;26.40;51.00;;;;;;5039324;28;20870;-93
2022/06/12 10:14:47;;;;;;;8.87;4.03;;;26.40;51.50;;;;;;5038512;28;20208;-93
2022/06/12 10:17:20;;;;;;;9.70;3.53;;;26.50;51.00;;;;;;5040494;28;20707;-93
2022/06/12 10:19:53;;;;;;;9.60;2.90;;;26.60;51.10;;;;;;5039021;28;20212;-94
2022/06/12 10:22:24;;;;;;;9.73;3.87;;;26.70;50.10;;;;;;5038041;28;20683;-94
2022/06/12 10:25:21;;;;;;;7.60;2.97;;;26.80;50.50;;;;;;5037618;28;20211;-93
2022/06/12 10:27:55;;;;;;;8.80;3.37;;;26.80;50.40;;;;;;5040295;28;20204;-90
2022/06/12 10:30:34;;;;;;;6.60;3.37;;;26.90;49.60;;;;;;5039162;28;20215;-93
2022/06/12 10:33:30;;;;;;;6.13;3.33;;;27.00;48.30;;;;;;5047327;22;20240;-92
2022/06/12 10:36:01;;;;;;;6.57;3.03;;;27.00;48.10;;;;;;5038562;28;20209;-93
2022/06/12 10:38:31;;;;;;;9.37;4.30;;;27.10;48.70;;;;;;5038324;28;20534;-92
2022/06/12 10:41:00;;;;;;;5.67;2.83;;;27.10;49.00;;;;;;5040827;28;20299;-92
2022/06/12 10:43:47;;;;;;;10.43;4.30;;;27.10;47.40;;;;;;5041171;28;20279;-92
2022/06/12 10:46:20;;;;;;;6.20;2.80;;;27.10;46.60;;;;;;5040865;28;20224;-94
2022/06/12 10:49:00;;;;;;;9.37;3.97;;;27.10;47.40;;;;;;5052556;28;20208;-92
2022/06/12 10:51:44;;;;;;;8.60;3.93;;;27.20;47.10;;;;;;5035998;28;20221;-94
2022/06/12 10:54:51;;;;;;;5.57;2.63;;;27.20;45.90;;;;;;5020216;28;20205;-92
2022/06/12 10:57:42;;;;;;;3.63;1.80;;;27.20;46.30;;;;;;5024417;28;20256;-92
2022/06/12 11:00:20;;;;;;;7.13;3.77;;;27.30;45.30;;;;;;5030025;22;20229;-93
2022/06/12 11:03:15;;;;;;;9.57;4.07;;;27.30;45.20;;;;;;5020234;28;20201;-95
2022/06/12 11:05:55;;;;;;;7.23;2.80;;;27.30;45.20;;;;;;5019358;28;20209;-91
2022/06/12 11:08:41;;;;;;;7.07;3.47;;;27.40;45.10;;;;;;5032972;28;20200;-92
2022/06/12 11:11:18;;;;;;;6.37;2.67;;;27.50;44.70;;;;;;5024437;28;20207;-93
2022/06/12 11:17:04;;;;;;;5.27;2.60;;;27.50;44.60;;;;;;5080054;22;20680;-96
2022/06/12 11:20:09;;;;;;;5.50;2.83;;;27.60;44.60;;;;;;5077798;28;20295;-93
2022/06/12 11:22:46;;;;;;;7.53;4.17;;;27.60;44.70;;;;;;5056842;28;20230;-93
2022/06/12 11:25:30;;;;;;;8.00;3.50;;;27.70;44.80;;;;;;5069304;28;20297;-93
2022/06/12 11:28:22;;;;;;;10.47;4.07;;;27.70;44.40;;;;;;5060034;28;20273;-93
2022/06/12 11:30:57;;;;;;;8.13;3.73;;;27.70;44.50;;;;;;5047820;28;20205;-93
2022/06/12 11:33:40;;;;;;;7.87;3.70;;;27.80;45.00;;;;;;5053906;28;20231;-95
2022/06/12 11:36:13;;;;;;;6.27;3.07;;;27.80;44.40;;;;;;5050100;28;20222;-92
2022/06/12 11:38:57;;;;;;;7.33;3.23;;;27.90;44.40;;;;;;5064898;28;20207;-91
2022/06/12 11:41:41;;;;;;;8.50;3.47;;;28.00;44.20;;;;;;5070045;28;20278;-93
2022/06/12 11:44:22;;;;;;;8.37;3.73;;;28.20;44.00;;;;;;5048624;28;20322;-95
2022/06/12 11:47:01;;;;;;;8.50;3.90;;;28.20;44.80;;;;;;5049420;28;20752;-95
2022/06/12 11:50:20;;;;;;;;;;;;;;;;;;;;;
2022/06/12 11:53:25;;;;;;;7.40;3.33;;;28.40;43.60;;;;;;5048584;28;20200;-94
2022/06/12 11:56:25;;;;;;;7.27;3.23;;;28.50;44.30;;;;;;5048058;28;20212;-95
2022/06/12 11:59:10;;;;;;;5.70;2.37;;;28.60;43.70;;;;;;5049353;28;20212;-94
2022/06/12 12:01:44;;;;;;;8.10;2.87;;;28.60;44.20;;;;;;5047016;28;20204;-95
2022/06/12 12:04:50;;;;;;;9.83;4.17;;;28.70;44.60;;;;;;5053851;28;20200;-95
2022/06/12 12:07:36;;;;;;;7.37;3.40;;;28.70;43.70;;;;;;5036020;28;20208;-93
2022/06/12 12:10:20;;;;;;;8.43;3.40;;;28.70;44.00;;;;;;5050762;28;20218;-95
2022/06/12 12:12:54;;;;;;;7.33;3.10;;;28.70;43.70;;;;;;5054844;28;20208;-95
2022/06/12 12:15:28;;;;;;;6.73;2.90;;;28.70;44.40;;;;;;5055136;28;20227;-94
2022/06/12 12:18:00;;;;;;;7.97;4.17;;;28.80;44.10;;;;;;5053369;28;20215;-96
2022/06/12 12:20:33;;;;;;;14.13;5.10;;;28.80;44.00;;;;;;5053099;28;20243;-92
2022/06/12 12:23:06;;;;;;;6.70;3.63;;;28.80;43.70;;;;;;5053386;28;20196;-96
2022/06/12 12:26:20;;;;;;;10.40;3.77;;;28.80;44.10;;;;;;5045736;28;20291;-96
2022/06/12 12:28:51;;;;;;;8.13;3.27;;;28.90;43.80;;;;;;5049282;28;20211;-96
2022/06/12 12:31:21;;;;;;;9.93;3.87;;;28.90;43.80;;;;;;5054293;28;20262;-95
2022/06/12 12:33:50;;;;;;;6.23;2.77;;;28.90;43.80;;;;;;5055328;28;20239;-94
2022/06/12 12:42:34;;;;;;;5.13;2.27;;;29.20;43.50;;;;;;5057264;28;20208;-96
2022/06/12 12:45:28;;;;;;;4.23;2.50;;;29.20;43.40;;;;;;5056109;28;20234;-95
2022/06/12 12:48:21;;;;;;;7.43;2.93;;;29.30;42.70;;;;;;5056148;28;20200;-96
2022/06/12 12:50:54;;;;;;;9.33;3.27;;;29.40;41.70;;;;;;5056751;28;20196;-95
2022/06/12 12:53:27;;;;;;;10.43;4.27;;;29.40;41.50;;;;;;5056637;28;20938;-95
2022/06/12 12:56:01;;;;;;;4.97;2.23;;;29.30;41.70;;;;;;5057987;28;20211;-96
2022/06/12 12:58:30;;;;;;;9.17;3.77;;;29.40;41.50;;;;;;5055924;28;20240;-93
2022/06/12 13:01:18;;;;;;;7.80;3.63;;;29.40;41.70;;;;;;5051393;28;20254;-95
2022/06/12 13:03:50;;;;;;;8.27;3.73;;;29.40;40.10;;;;;;5055114;28;20238;-96
2022/06/12 13:06:43;;;;;;;6.97;3.30;;;29.40;40.90;;;;;;5055355;28;20211;-94
2022/06/12 13:09:42;;;;;;;7.13;3.37;;;29.40;40.60;;;;;;5048271;28;20228;-96
2022/06/12 13:12:29;;;;;;;5.43;3.10;;;29.40;40.30;;;;;;5044448;28;20193;-95
2022/06/12 13:15:32;;;;;;;12.50;4.77;;;29.40;40.60;;;;;;5055382;28;20265;-95
2022/06/12 13:18:09;;;;;;;10.23;3.77;;;29.40;40.50;;;;;;5048883;28;20231;-96
2022/06/12 13:20:55;;;;;;;11.73;4.10;;;29.40;40.90;;;;;;5054330;28;20353;-96
2022/06/12 13:23:48;;;;;;;7.33;3.53;;;29.40;40.30;;;;;;5055680;28;20661;-95
2022/06/12 13:26:21;;;;;;;7.93;3.63;;;29.40;40.20;;;;;;5059585;28;20207;-95
2022/06/12 13:29:18;;;;;;;5.47;2.47;;;29.40;40.20;;;;;;5037335;28;20251;-95
2022/06/12 13:31:58;;;;;;;7.17;2.87;;;29.40;39.40;;;;;;5036841;28;20259;-96
2022/06/12 13:34:27;;;;;;;8.23;2.97;;;29.30;39.70;;;;;;5033690;28;20204;-95
2022/06/12 13:37:21;;;;;;;7.90;2.93;;;29.30;40.70;;;;;;5035813;28;20212;-95
2022/06/12 13:39:50;;;;;;;8.17;2.70;;;29.30;40.70;;;;;;5041923;28;20277;-96
2022/06/12 13:42:24;;;;;;;4.27;2.13;;;29.40;40.40;;;;;;5054005;28;20204;-95
2022/06/12 13:44:53;;;;;;;9.00;3.37;;;29.40;40.30;;;;;;5054203;28;20236;-95
2022/06/12 13:47:47;;;;;;;5.27;2.43;;;29.50;40.70;;;;;;5054647;28;20295;-96
2022/06/12 13:50:26;;;;;;;7.07;3.03;;;29.50;39.80;;;;;;5055530;28;20204;-94
2022/06/12 13:52:58;;;;;;;7.87;2.83;;;29.50;40.10;;;;;;5055662;28;20208;-96
2022/06/12 13:55:28;;;;;;;8.00;3.60;;;29.60;40.20;;;;;;5049994;28;20200;-94
2022/06/12 13:58:01;;;;;;;7.13;3.10;;;29.60;40.30;;;;;;5057377;28;20676;-95